Time;durP1;ratioP1;P1;durP2;ratioP2;P2;SDS_P1;SDS_P2;PMS_P1;PMS_P2;Temp;Humidity;BMP_temperature;BMP_pressure;BME280_temperature;BME280_humidity;BME280_pressure;Samples;Min_cycle;Max_cycle;Signal;HPM_P1;HPM_P2
2023/07/21 00:02:08;;;;;;;;;5.00;5.00;;;;;23.81;43.90;100483.16;109619;1268;17894;-36
2023/07/21 00:04:36;;;;;;;;;5.00;5.00;;;;;23.80;43.75;100484.32;109582;1253;21584;-35
2023/07/21 00:07:04;;;;;;;;;6.00;6.00;;;;;23.78;43.88;100482.55;109615;1269;21959;-36
2023/07/21 00:09:31;;;;;;;;;5.00;5.00;;;;;23.79;44.03;100475.64;109592;1254;19341;-36
2023/07/21 00:11:59;;;;;;;;;6.00;6.00;;;;;23.79;43.88;100477.27;109578;1254;22219;-36
2023/07/21 00:14:28;;;;;;;;;3.00;3.00;;;;;23.79;43.69;100475.64;109609;1254;19710;-36
2023/07/21 00:16:55;;;;;;;;;6.50;5.50;;;;;23.79;43.89;100469.78;109581;1254;19271;-35
2023/07/21 00:19:23;;;;;;;;;5.00;5.00;;;;;23.78;43.73;100471.55;109327;1254;396284;-36
2023/07/21 00:21:51;;;;;;;;;5.00;5.00;;;;;23.78;43.58;100468.04;109577;1254;21547;-36
2023/07/21 00:24:20;;;;;;;;;5.00;5.00;;;;;23.78;43.72;100464.38;109625;1268;18038;-35
2023/07/21 00:26:47;;;;;;;;;6.00;5.00;;;;;23.78;43.78;100465.59;109629;1253;19937;-35
2023/07/21 00:29:15;;;;;;;;;5.00;5.00;;;;;23.77;43.90;100465.21;109603;1268;21834;-36
2023/07/21 00:31:46;;;;;;;;;5.00;5.00;;;;;23.77;43.79;100464.35;109621;1254;19333;-35
2023/07/21 00:34:14;;;;;;;;;6.33;5.67;;;;;23.76;43.64;100464.95;109563;1253;19975;-35
2023/07/21 00:36:41;;;;;;;;;6.00;5.00;;;;;23.76;43.89;100467.97;109596;1263;19784;-35
2023/07/21 00:39:09;;;;;;;;;6.50;5.50;;;;;23.77;43.66;100468.73;109586;1254;21956;-35
2023/07/21 00:41:37;;;;;;;;;5.00;5.00;;;;;23.76;43.70;100471.80;109612;1260;20029;-35
2023/07/21 00:44:08;;;;;;;;;5.00;5.00;;;;;23.75;43.61;100467.31;109581;1262;19723;-35
2023/07/21 00:46:35;;;;;;;;;5.50;5.50;;;;;23.75;43.73;100466.73;109621;1268;17950;-36
2023/07/21 00:49:03;;;;;;;;;5.00;5.00;;;;;23.72;43.53;100463.76;109640;1260;21892;-36
2023/07/21 00:51:30;;;;;;;;;6.00;6.00;;;;;23.71;43.51;100462.52;109599;1268;18325;-36
2023/07/21 00:54:00;;;;;;;;;6.00;5.00;;;;;23.72;43.53;100462.50;109590;1268;19209;-36
2023/07/21 00:56:27;;;;;;;;;5.33;4.33;;;;;23.72;43.51;100459.70;109596;1268;18621;-36
2023/07/21 00:58:55;;;;;;;;;5.50;5.50;;;;;23.72;43.92;100460.76;109600;1268;18269;-36
2023/07/21 01:01:23;;;;;;;;;5.50;5.00;;;;;23.72;43.77;100457.41;109600;1254;19319;-35
2023/07/21 01:03:51;;;;;;;;;6.50;5.00;;;;;23.73;43.62;100459.75;109587;1268;18482;-36
2023/07/21 01:06:19;;;;;;;;;5.00;5.00;;;;;23.73;43.75;100458.62;109597;1261;21464;-36
2023/07/21 01:08:47;;;;;;;;;6.00;5.00;;;;;23.73;43.90;100460.27;109600;1260;19170;-35
2023/07/21 01:11:14;;;;;;;;;6.00;5.00;;;;;23.74;43.76;100466.20;109609;1268;20188;-36
2023/07/21 01:13:42;;;;;;;;;5.50;5.50;;;;;23.73;43.87;100465.45;109630;1253;19700;-35
2023/07/21 01:16:10;;;;;;;;;5.00;5.00;;;;;23.72;43.88;100465.19;109720;1268;17906;-35
2023/07/21 01:18:37;;;;;;;;;5.00;5.00;;;;;23.72;43.91;100462.44;109748;1252;19704;-36
2023/07/21 01:21:05;;;;;;;;;5.00;5.00;;;;;23.71;43.77;100466.66;109726;1268;19663;-36
2023/07/21 01:23:33;;;;;;;;;6.00;6.00;;;;;23.71;43.70;100463.12;109698;1268;19117;-36
2023/07/21 01:26:00;;;;;;;;;3.00;3.00;;;;;23.73;43.60;100460.20;109626;1268;18600;-35
2023/07/21 01:28:28;;;;;;;;;5.00;5.00;;;;;23.71;43.69;100454.64;109515;1263;18229;-35
2023/07/21 01:30:55;;;;;;;;;3.00;3.00;;;;;23.69;43.63;100454.41;109563;1268;19188;-35
2023/07/21 01:33:22;;;;;;;;;5.00;3.00;;;;;23.69;43.61;100452.38;109615;1253;20019;-35
2023/07/21 01:35:50;;;;;;;;;7.00;6.00;;;;;23.69;43.42;100452.32;109587;1268;18228;-35
2023/07/21 01:38:17;;;;;;;;;5.00;5.00;;;;;23.69;43.39;100450.64;109597;1254;20698;-35
2023/07/21 01:40:45;;;;;;;;;5.00;5.00;;;;;23.68;43.57;100448.24;109589;1254;20585;-35
2023/07/21 01:43:12;;;;;;;;;6.00;5.00;;;;;23.68;43.43;100451.63;109621;1254;20136;-35
2023/07/21 01:45:40;;;;;;;;;7.00;6.00;;;;;23.69;43.37;100455.49;109600;1253;17933;-34
2023/07/21 01:48:09;;;;;;;;;6.00;5.00;;;;;23.69;43.45;100453.20;109566;1254;20084;-35
2023/07/21 01:50:37;;;;;;;;;5.67;5.00;;;;;23.67;43.48;100454.05;109645;1268;20194;-36
2023/07/21 01:53:04;;;;;;;;;7.00;5.00;;;;;23.66;43.46;100452.70;109613;1254;17886;-36
2023/07/21 01:55:32;;;;;;;;;5.00;5.00;;;;;23.66;43.56;100453.84;109636;1268;20973;-35
2023/07/21 01:58:00;;;;;;;;;5.00;5.00;;;;;23.67;43.20;100452.80;109606;1268;18277;-35
2023/07/21 02:00:28;;;;;;;;;5.00;5.00;;;;;23.65;43.48;100456.75;109623;1262;19226;-35
2023/07/21 02:02:56;;;;;;;;;5.00;5.00;;;;;23.66;43.60;100458.54;109619;1268;18575;-36
2023/07/21 02:05:23;;;;;;;;;7.00;7.00;;;;;23.64;43.72;100456.06;109601;1268;18199;-36
2023/07/21 02:07:50;;;;;;;;;6.00;5.00;;;;;23.63;43.42;100456.57;109625;1256;19357;-36
2023/07/21 02:10:18;;;;;;;;;6.00;6.00;;;;;23.64;43.35;100459.89;109589;1254;20010;-36
2023/07/21 02:12:45;;;;;;;;;7.00;6.00;;;;;23.64;43.51;100464.45;109600;1254;19707;-35
2023/07/21 02:15:13;;;;;;;;;5.00;5.00;;;;;23.63;43.67;100465.21;109569;1260;19381;-36
2023/07/21 02:17:41;;;;;;;;;5.00;5.00;;;;;23.64;43.53;100463.45;109633;1255;19962;-36
2023/07/21 02:20:09;;;;;;;;;5.50;5.50;;;;;23.64;43.51;100463.77;109527;1253;19831;-36
2023/07/21 02:22:37;;;;;;;;;7.00;5.00;;;;;23.64;43.72;100459.46;109669;1260;19202;-35
2023/07/21 02:25:05;;;;;;;;;5.00;5.00;;;;;23.64;43.59;100463.61;109585;1268;21853;-36
2023/07/21 02:27:33;;;;;;;;;5.00;5.00;;;;;23.64;43.58;100462.46;109644;1253;19664;-36
2023/07/21 02:30:00;;;;;;;;;7.00;6.00;;;;;23.64;43.65;100464.27;109624;1268;18094;-36
2023/07/21 02:32:28;;;;;;;;;5.00;5.00;;;;;23.63;43.76;100465.98;109605;1260;22641;-36
2023/07/21 02:34:56;;;;;;;;;6.50;6.50;;;;;23.62;43.75;100466.00;109599;1268;18280;-36
2023/07/21 02:37:24;;;;;;;;;6.00;5.00;;;;;23.61;43.58;100468.24;109659;1253;19353;-36
2023/07/21 02:39:51;;;;;;;;;6.00;5.00;;;;;23.62;43.44;100469.00;109606;1268;19220;-36
2023/07/21 02:42:18;;;;;;;;;6.00;6.00;;;;;23.61;43.84;100472.13;109600;1269;19707;-36
2023/07/21 02:44:46;;;;;;;;;6.00;6.00;;;;;23.60;43.80;100472.04;109602;1254;19275;-35
2023/07/21 02:47:13;;;;;;;;;5.00;5.00;;;;;23.60;43.71;100472.31;109607;1268;19934;-36
2023/07/21 02:49:41;;;;;;;;;6.00;5.00;;;;;23.62;43.62;100469.72;109627;1269;18240;-36
2023/07/21 02:52:08;;;;;;;;;5.00;5.00;;;;;23.61;43.65;100475.63;109570;1254;19462;-35
2023/07/21 02:54:36;;;;;;;;;6.00;6.00;;;;;23.62;43.65;100473.81;109563;1263;20229;-35
2023/07/21 02:57:03;;;;;;;;;6.00;5.00;;;;;23.61;43.75;100473.84;109600;1254;21832;-36
2023/07/21 02:59:31;;;;;;;;;6.50;6.50;;;;;23.60;43.38;100471.88;109595;1254;19333;-35
2023/07/21 03:01:59;;;;;;;;;7.00;6.00;;;;;23.58;43.66;100472.51;109617;1262;20112;-35
2023/07/21 03:04:26;;;;;;;;;6.00;6.00;;;;;23.59;43.50;100471.67;109637;1269;18236;-35
2023/07/21 03:06:54;;;;;;;;;9.00;7.00;;;;;23.59;43.56;100472.71;109654;1253;21817;-35
2023/07/21 03:09:21;;;;;;;;;7.00;6.00;;;;;23.61;43.35;100474.38;109601;1255;20029;-36
2023/07/21 03:11:49;;;;;;;;;7.00;6.00;;;;;23.58;43.18;100477.20;109607;1253;19539;-36
2023/07/21 03:14:16;;;;;;;;;5.00;5.00;;;;;23.59;43.25;100478.08;109591;1262;19329;-35
2023/07/21 03:16:43;;;;;;;;;6.00;6.00;;;;;23.55;43.30;100481.79;109595;1254;20057;-35
2023/07/21 03:19:11;;;;;;;;;6.00;6.00;;;;;23.56;43.50;100481.56;109583;1268;21980;-35
2023/07/21 03:21:38;;;;;;;;;8.00;7.00;;;;;23.58;43.08;100485.53;109612;1262;19358;-35
2023/07/21 03:24:07;;;;;;;;;7.00;6.00;;;;;23.56;42.94;100484.40;109649;1268;18587;-36
2023/07/21 03:26:34;;;;;;;;;6.00;5.00;;;;;23.56;43.22;100484.02;109509;1268;18269;-36
2023/07/21 03:29:02;;;;;;;;;6.00;6.00;;;;;23.55;43.07;100484.63;109631;1269;19343;-36
2023/07/21 03:31:29;;;;;;;;;5.00;5.00;;;;;23.53;42.99;100483.70;109683;1254;19913;-36
2023/07/21 03:33:57;;;;;;;;;7.00;7.00;;;;;23.52;42.77;100485.02;109562;1254;19642;-36
2023/07/21 03:36:24;;;;;;;;;8.00;7.00;;;;;23.54;42.78;100487.91;109610;1253;19240;-36
2023/07/21 03:38:51;;;;;;;;;7.00;6.00;;;;;23.55;42.82;100488.11;109577;1254;20192;-36
2023/07/21 03:41:19;;;;;;;;;6.00;6.00;;;;;23.55;42.94;100484.86;109570;1260;19650;-36
2023/07/21 03:43:47;;;;;;;;;7.00;7.00;;;;;23.54;42.65;100481.52;109601;1268;17916;-36
2023/07/21 03:46:14;;;;;;;;;7.00;7.00;;;;;23.53;42.61;100480.16;109572;1255;20008;-36
2023/07/21 03:48:42;;;;;;;;;7.00;7.00;;;;;23.52;42.80;100484.42;109568;1253;22058;-36
2023/07/21 03:51:10;;;;;;;;;7.00;6.50;;;;;23.54;42.67;100488.15;109620;1268;17933;-36
2023/07/21 03:53:37;;;;;;;;;6.00;6.00;;;;;23.51;42.58;100486.95;109603;1255;21509;-36
2023/07/21 03:56:05;;;;;;;;;6.00;5.00;;;;;23.53;42.82;100483.16;109608;1260;18265;-35
2023/07/21 03:58:32;;;;;;;;;5.50;5.00;;;;;23.51;42.70;100484.38;109592;1253;19299;-36
2023/07/21 04:00:59;;;;;;;;;7.00;7.00;;;;;23.50;42.44;100484.95;109595;1261;19688;-36
2023/07/21 04:03:27;;;;;;;;;9.00;6.00;;;;;23.52;42.58;100483.33;109573;1262;21560;-36
2023/07/21 04:05:54;;;;;;;;;6.00;5.50;;;;;23.52;42.64;100479.34;109599;1253;19427;-36
2023/07/21 04:08:22;;;;;;;;;5.33;5.33;;;;;23.51;42.74;100480.33;109533;1254;21881;-36
2023/07/21 04:10:49;;;;;;;;;9.00;9.00;;;;;23.53;42.59;100479.55;109632;1254;19630;-36
2023/07/21 04:13:17;;;;;;;;;10.00;9.00;;;;;23.34;42.44;100479.43;109616;1253;19261;-35
2023/07/21 04:15:44;;;;;;;;;9.00;9.00;;;;;23.02;42.95;100481.80;109582;1254;20000;-36
2023/07/21 04:18:12;;;;;;;;;10.00;10.00;;;;;22.77;43.71;100488.23;109608;1268;18598;-36
2023/07/21 04:20:39;;;;;;;;;16.00;15.00;;;;;22.70;43.57;100491.36;109597;1262;19651;-35
2023/07/21 04:23:06;;;;;;;;;17.00;15.50;;;;;22.60;43.68;100489.98;109572;1254;22181;-36
2023/07/21 04:25:34;;;;;;;;;12.00;10.00;;;;;22.48;44.23;100495.73;109593;1262;19883;-34
2023/07/21 04:28:05;;;;;;;;;9.50;9.50;;;;;22.34;44.47;100498.38;109570;1254;19541;-36
2023/07/21 04:30:33;;;;;;;;;10.00;10.00;;;;;22.28;44.40;100495.10;109492;1263;19861;-34
2023/07/21 04:33:00;;;;;;;;;10.00;9.50;;;;;22.17;44.82;100493.66;109589;1254;19684;-35
2023/07/21 04:35:28;;;;;;;;;11.00;11.00;;;;;22.04;45.51;100495.03;109587;1260;19399;-35
2023/07/21 04:37:55;;;;;;;;;10.00;10.00;;;;;22.06;45.97;100502.64;109573;1269;18600;-36
2023/07/21 04:40:22;;;;;;;;;9.00;9.00;;;;;22.08;45.43;100500.28;109604;1253;19803;-36
2023/07/21 04:42:50;;;;;;;;;12.00;12.00;;;;;22.11;45.57;100501.08;109616;1268;19392;-36
2023/07/21 04:45:17;;;;;;;;;11.00;11.00;;;;;22.09;45.74;100500.11;109617;1254;19920;-35
2023/07/21 04:47:49;;;;;;;;;11.50;9.00;;;;;22.08;45.70;100500.51;109598;1253;18553;-35
2023/07/21 04:50:16;;;;;;;;;13.00;12.00;;;;;22.07;45.78;100501.11;109633;1254;19545;-36
2023/07/21 04:52:44;;;;;;;;;11.50;11.00;;;;;22.05;45.61;100498.45;109588;1262;20539;-36
2023/07/21 04:55:11;;;;;;;;;9.00;8.50;;;;;22.03;45.48;100501.96;109612;1269;19121;-35
2023/07/21 04:57:38;;;;;;;;;9.00;9.00;;;;;22.00;45.80;100499.40;109603;1262;19354;-36
2023/07/21 05:00:11;;;;;;;;;9.00;9.00;;;;;22.01;45.82;100502.02;109573;1254;20031;-35
2023/07/21 05:02:39;;;;;;;;;12.00;11.00;;;;;22.05;45.85;100504.52;109567;1253;19694;-36
2023/07/21 05:05:07;;;;;;;;;11.00;11.00;;;;;22.00;46.06;100506.39;109590;1254;19501;-35
2023/07/21 05:07:34;;;;;;;;;11.50;11.00;;;;;22.03;46.35;100508.57;109570;1253;20725;-36
2023/07/21 05:10:02;;;;;;;;;11.00;9.00;;;;;22.05;46.51;100511.98;109593;1262;20059;-36
2023/07/21 05:12:29;;;;;;;;;12.00;11.00;;;;;22.00;46.82;100511.23;109626;1255;19985;-36
2023/07/21 05:14:58;;;;;;;;;9.00;9.00;;;;;21.98;46.60;100512.84;109571;1254;20779;-35
2023/07/21 05:17:27;;;;;;;;;11.50;11.00;;;;;22.03;46.20;100515.77;109646;1268;18808;-36
2023/07/21 05:19:54;;;;;;;;;9.00;9.00;;;;;22.04;46.21;100517.34;109563;1262;20158;-35
2023/07/21 05:22:22;;;;;;;;;9.00;9.00;;;;;22.07;45.97;100519.98;109595;1254;20729;-36
2023/07/21 05:24:49;;;;;;;;;10.00;9.00;;;;;22.09;46.06;100519.00;109572;1254;19653;-36
2023/07/21 05:27:18;;;;;;;;;9.00;9.00;;;;;22.09;46.03;100518.50;109628;1253;22128;-36
2023/07/21 05:29:46;;;;;;;;;9.00;8.00;;;;;22.11;46.06;100516.08;109587;1252;20868;-35
2023/07/21 05:32:15;;;;;;;;;12.00;12.00;;;;;22.08;46.14;100516.27;109568;1262;19480;-36
2023/07/21 05:34:43;;;;;;;;;12.00;12.00;;;;;22.11;46.25;100514.34;109624;1254;20155;-35
2023/07/21 05:37:11;;;;;;;;;9.00;9.00;;;;;22.13;46.13;100508.87;109630;1260;22659;-36
2023/07/21 05:39:39;;;;;;;;;11.00;11.00;;;;;22.21;45.85;100512.25;109652;1253;20014;-36
2023/07/21 05:42:07;;;;;;;;;12.00;10.00;;;;;22.22;45.80;100513.16;109588;1268;18726;-36
2023/07/21 05:44:34;;;;;;;;;9.00;6.00;;;;;22.20;45.75;100508.59;109571;1254;20832;-36
2023/07/21 05:47:02;;;;;;;;;6.00;6.00;;;;;22.23;45.50;100510.48;109564;1253;19928;-35
2023/07/21 05:49:30;;;;;;;;;9.00;9.00;;;;;22.23;45.59;100508.89;109616;1268;18713;-35
2023/07/21 05:51:58;;;;;;;;;8.00;8.00;;;;;22.29;45.29;100509.17;109590;1254;20762;-36
2023/07/21 05:54:26;;;;;;;;;10.50;9.00;;;;;22.33;44.93;100511.33;109575;1268;22189;-35
2023/07/21 05:56:54;;;;;;;;;8.00;8.00;;;;;22.41;45.33;100514.52;109631;1268;18691;-35
2023/07/21 05:59:21;;;;;;;;;8.00;8.00;;;;;22.45;45.14;100512.08;109612;1254;19369;-36
2023/07/21 06:01:51;;;;;;;;;12.00;10.00;;;;;22.47;44.73;100508.90;109618;1268;18478;-34
2023/07/21 06:04:20;;;;;;;;;13.00;12.50;;;;;22.46;45.05;100509.30;109595;1254;20184;-36
2023/07/21 06:06:47;;;;;;;;;12.00;10.00;;;;;22.50;44.82;100510.95;109598;1268;19511;-35
2023/07/21 06:09:14;;;;;;;;;6.00;6.00;;;;;22.53;44.80;100510.87;109618;1268;18674;-35
2023/07/21 06:11:42;;;;;;;;;9.00;9.00;;;;;22.48;45.38;100510.70;109637;1253;20062;-35
2023/07/21 06:14:09;;;;;;;;;10.00;9.00;;;;;22.21;45.95;100510.11;109617;1268;21822;-35
2023/07/21 06:16:37;;;;;;;;;8.00;8.00;;;;;22.20;45.92;100508.87;109608;1262;19741;-35
2023/07/21 06:19:04;;;;;;;;;8.00;8.00;;;;;22.17;45.78;100512.27;109590;1254;20079;-35
2023/07/21 06:21:32;;;;;;;;;8.00;6.00;;;;;22.06;46.07;100514.86;109588;1268;19378;-35
2023/07/21 06:23:59;;;;;;;;;6.00;6.00;;;;;22.10;45.53;100515.39;109599;1268;18344;-35
2023/07/21 06:26:27;;;;;;;;;11.00;10.00;;;;;22.15;45.51;100511.09;109675;1268;18572;-36
2023/07/21 06:28:54;;;;;;;;;7.00;6.00;;;;;22.11;45.85;100517.50;109594;1268;19335;-36
2023/07/21 06:31:22;;;;;;;;;8.00;6.00;;;;;22.17;45.42;100517.13;109560;1269;20011;-36
2023/07/21 06:33:49;;;;;;;;;6.00;6.00;;;;;22.23;45.38;100513.91;109675;1268;22176;-35
2023/07/21 06:36:17;;;;;;;;;6.00;6.00;;;;;22.27;45.13;100513.45;109590;1254;20815;-36
2023/07/21 06:38:45;;;;;;;;;8.00;8.00;;;;;22.33;45.36;100508.76;109618;1254;19565;-36
2023/07/21 06:41:12;;;;;;;;;6.00;6.00;;;;;22.41;44.95;100510.64;109588;1253;23440;-36
2023/07/21 06:43:40;;;;;;;;;5.00;5.00;;;;;22.43;44.76;100511.13;109588;1262;20287;-36
2023/07/21 06:46:07;;;;;;;;;5.00;5.00;;;;;22.52;44.88;100511.47;109578;1254;19627;-35
2023/07/21 06:48:34;;;;;;;;;6.00;6.00;;;;;22.55;44.48;100505.39;109555;1263;20071;-36
2023/07/21 06:51:02;;;;;;;;;7.00;5.50;;;;;22.57;44.31;100508.64;109611;1268;19480;-36
2023/07/21 06:53:29;;;;;;;;;9.00;9.00;;;;;22.55;44.19;100510.36;109599;1268;19625;-36
2023/07/21 06:55:57;;;;;;;;;9.50;9.50;;;;;22.62;43.84;100508.70;109591;1262;20251;-36
2023/07/21 06:58:24;;;;;;;;;6.00;6.00;;;;;22.61;43.99;100509.31;109579;1268;20796;-36
2023/07/21 07:00:56;;;;;;;;;12.00;12.00;;;;;22.68;44.18;100504.38;109658;1254;19639;-36
2023/07/21 07:03:24;;;;;;;;;8.00;8.00;;;;;22.78;44.01;100507.03;109682;1254;20126;-35
2023/07/21 07:05:51;;;;;;;;;11.50;11.50;;;;;22.85;43.63;100507.99;109680;1269;22370;-36
2023/07/21 07:08:18;;;;;;;;;12.00;11.00;;;;;22.90;43.40;100508.81;109621;1253;22703;-34
2023/07/21 07:10:46;;;;;;;;;9.00;8.00;;;;;22.85;42.71;100504.08;109572;1268;22214;-34
2023/07/21 07:13:13;;;;;;;;;9.00;8.00;;;;;22.79;42.53;100508.98;109662;1254;20606;-34
2023/07/21 07:15:41;;;;;;;;;4.00;4.00;;;;;22.85;42.59;100503.75;109698;1254;19644;-34
2023/07/21 07:18:10;;;;;;;;;8.00;6.00;;;;;22.96;42.37;100505.74;109732;1262;19852;-35
2023/07/21 07:20:38;;;;;;;;;6.00;6.00;;;;;23.08;42.63;100506.05;109677;1254;21164;-35
2023/07/21 07:23:05;;;;;;;;;5.50;5.50;;;;;23.07;42.45;100506.38;109712;1254;19604;-34
2023/07/21 07:25:34;;;;;;;;;6.00;5.00;;;;;23.13;42.73;100505.38;109631;1256;18727;-35
2023/07/21 07:28:01;;;;;;;;;6.00;6.00;;;;;23.26;42.56;100510.86;109590;1268;19333;-36
2023/07/21 07:30:29;;;;;;;;;5.00;5.00;;;;;23.27;42.05;100508.11;109589;1268;18441;-35
2023/07/21 07:32:56;;;;;;;;;5.00;5.00;;;;;23.21;41.79;100502.45;109599;1255;20022;-36
2023/07/21 07:35:23;;;;;;;;;5.00;3.00;;;;;23.29;41.62;100507.16;109590;1268;19397;-36
2023/07/21 07:37:51;;;;;;;;;27.00;22.00;;;;;23.34;41.65;100508.35;109551;1269;18212;-35
2023/07/21 07:40:19;;;;;;;;;35.00;31.00;;;;;23.37;41.44;100503.44;109567;1268;18668;-36
2023/07/21 07:42:46;;;;;;;;;68.00;50.00;;;;;23.44;40.96;100501.42;109577;1254;20789;-36
2023/07/21 07:45:13;;;;;;;;;44.00;36.50;;;;;23.49;41.02;100501.20;109578;1253;20081;-36
2023/07/21 07:47:42;;;;;;;;;57.00;41.00;;;;;23.50;40.78;100499.66;109578;1263;20494;-35
2023/07/21 07:50:10;;;;;;;;;61.00;43.33;;;;;23.55;40.44;100498.73;109606;1254;20813;-36
2023/07/21 07:52:39;;;;;;;;;40.00;33.00;;;;;23.59;40.24;100503.11;109628;1254;20008;-37
2023/07/21 07:55:07;;;;;;;;;28.00;24.00;;;;;23.60;40.55;100499.71;109568;1262;22128;-36
2023/07/21 07:57:34;;;;;;;;;18.67;16.33;;;;;23.73;40.33;100500.39;109592;1268;20757;-36
2023/07/21 08:00:04;;;;;;;;;11.00;10.00;;;;;23.86;39.90;100500.09;109594;1268;18639;-36
2023/07/21 08:02:31;;;;;;;;;7.00;7.00;;;;;23.89;39.75;100497.86;109612;1252;21427;-35
2023/07/21 08:04:59;;;;;;;;;6.00;5.50;;;;;23.82;39.60;100496.36;109612;1256;20784;-36
2023/07/21 08:07:26;;;;;;;;;5.00;5.00;;;;;23.84;39.48;100497.39;109623;1254;19671;-36
2023/07/21 08:09:54;;;;;;;;;;;;;;;23.78;39.22;100502.58;109615;1268;18808;-35
2023/07/21 08:12:21;;;;;;;;;31.00;24.00;;;;;23.85;39.11;100503.45;109600;1269;20088;-35
2023/07/21 08:14:49;;;;;;;;;37.00;30.00;;;;;23.95;38.57;100503.61;109579;1253;18360;-36
2023/07/21 08:17:16;;;;;;;;;44.50;32.00;;;;;23.95;38.73;100506.23;109601;1254;21854;-35
2023/07/21 08:19:44;;;;;;;;;32.00;24.00;;;;;23.81;38.46;100509.19;109591;1253;23013;-36
2023/07/21 08:22:12;;;;;;;;;27.00;23.00;;;;;23.81;38.53;100508.70;109556;1254;20041;-34
2023/07/21 08:24:39;;;;;;;;;22.67;14.67;;;;;23.76;38.55;100511.35;109595;1268;18697;-35
2023/07/21 08:27:07;;;;;;;;;10.00;8.00;;;;;23.72;38.38;100510.86;109595;1268;20603;-35
2023/07/21 08:29:35;;;;;;;;;7.00;6.00;;;;;23.70;38.44;100507.83;109582;1254;20065;-35
2023/07/21 08:32:02;;;;;;;;;7.00;7.00;;;;;23.89;38.58;100507.92;109556;1254;22333;-36
2023/07/21 08:34:30;;;;;;;;;5.00;5.00;;;;;23.83;38.69;100510.69;109575;1256;20917;-35
2023/07/21 08:36:57;;;;;;;;;5.50;5.00;;;;;23.65;38.77;100510.24;109645;1268;18534;-36
2023/07/21 08:39:25;;;;;;;;;5.00;5.00;;;;;23.51;38.82;100508.38;109679;1260;19935;-36
2023/07/21 08:41:52;;;;;;;;;5.00;5.00;;;;;23.62;38.41;100507.55;109586;1254;21916;-35
2023/07/21 08:44:20;;;;;;;;;3.00;3.00;;;;;23.88;38.25;100504.00;109604;1254;19668;-35
2023/07/21 08:46:48;;;;;;;;;5.00;5.00;;;;;23.96;37.67;100507.00;109663;1268;20154;-35
2023/07/21 08:49:15;;;;;;;;;3.00;2.00;;;;;23.98;37.16;100504.30;109570;1254;22245;-36
2023/07/21 08:51:43;;;;;;;;;5.00;5.00;;;;;23.98;37.17;100502.38;109590;1269;22553;-36
2023/07/21 08:54:11;;;;;;;;;5.00;3.00;;;;;24.12;36.64;100503.13;109609;1262;19812;-36
2023/07/21 08:56:38;;;;;;;;;5.00;3.00;;;;;24.19;37.04;100501.64;109609;1268;20888;-36
2023/07/21 08:59:06;;;;;;;;;3.00;3.00;;;;;24.23;36.63;100507.27;109606;1253;22757;-35
2023/07/21 09:01:33;;;;;;;;;3.00;3.00;;;;;24.42;36.36;100503.69;109609;1260;20126;-36
2023/07/21 09:04:01;;;;;;;;;5.00;3.00;;;;;24.26;36.41;100509.15;109588;1269;19621;-36
2023/07/21 09:06:28;;;;;;;;;6.00;5.00;;;;;24.16;36.60;100510.39;109606;1263;19737;-37
2023/07/21 09:08:56;;;;;;;;;5.00;5.00;;;;;24.18;36.58;100511.41;109569;1253;18642;-36
2023/07/21 09:11:23;;;;;;;;;7.00;5.00;;;;;24.26;36.31;100509.64;109577;1265;19477;-36
2023/07/21 09:13:51;;;;;;;;;5.00;5.00;;;;;24.22;36.18;100506.52;109564;1268;22763;-36
2023/07/21 09:16:19;;;;;;;;;5.00;3.00;;;;;24.33;35.66;100502.69;109645;1253;20533;-35
2023/07/21 09:18:47;;;;;;;;;5.00;5.00;;;;;24.42;35.17;100500.39;109597;1256;20847;-36
2023/07/21 09:21:14;;;;;;;;;5.00;5.00;;;;;24.43;35.31;100495.84;109627;1268;22665;-36
2023/07/21 09:23:42;;;;;;;;;3.00;3.00;;;;;24.48;35.33;100495.10;109595;1254;20531;-36
2023/07/21 09:26:09;;;;;;;;;4.00;3.00;;;;;24.38;35.62;100495.21;109524;1254;22011;-35
2023/07/21 09:28:36;;;;;;;;;5.00;3.00;;;;;24.27;35.72;100496.50;109617;1268;19787;-36
2023/07/21 09:31:04;;;;;;;;;2.00;2.00;;;;;24.36;35.63;100498.16;109599;1262;19871;-37
2023/07/21 09:33:32;;;;;;;;;6.00;5.00;;;;;24.46;35.17;100491.73;109582;1254;20809;-36
2023/07/21 09:36:00;;;;;;;;;3.00;3.00;;;;;24.56;34.81;100493.79;109587;1268;20240;-36
2023/07/21 09:38:28;;;;;;;;;3.00;3.00;;;;;24.54;34.59;100494.11;109639;1268;18593;-36
2023/07/21 09:40:56;;;;;;;;;5.00;3.00;;;;;24.44;34.93;100495.66;109570;1253;19188;-37
2023/07/21 09:43:23;;;;;;;;;3.00;3.00;;;;;24.51;34.80;100487.81;109677;1268;19519;-36
2023/07/21 09:45:54;;;;;;;;;5.00;3.00;;;;;24.52;34.88;100487.08;109706;1268;20267;-35
2023/07/21 09:48:21;;;;;;;;;3.00;3.00;;;;;24.56;34.76;100492.05;109724;1268;20827;-36
2023/07/21 09:50:49;;;;;;;;;6.00;3.00;;;;;24.60;34.44;100491.55;109699;1253;18397;-37
2023/07/21 09:53:20;;;;;;;;;3.00;3.00;;;;;24.63;34.42;100491.53;109755;1268;19998;-37
2023/07/21 09:55:47;;;;;;;;;3.00;3.00;;;;;24.65;34.38;100488.48;109731;1268;19382;-36
2023/07/21 09:58:29;;;;;;;;;5.00;3.00;;;;;24.49;34.55;100489.11;109629;1268;18335;-36
2023/07/21 10:00:57;;;;;;;;;3.00;3.00;;;;;24.49;34.32;100482.70;109402;1269;19992;-36
2023/07/21 10:03:24;;;;;;;;;4.00;3.00;;;;;24.55;34.67;100474.98;109647;1268;20756;-35
2023/07/21 10:05:54;;;;;;;;;2.00;2.00;;;;;24.65;34.59;100480.05;109381;1270;19618;-36
2023/07/21 10:08:22;;;;;;;;;2.00;2.00;;;;;24.61;34.75;100476.67;109424;1255;19866;-36
2023/07/21 10:10:50;;;;;;;;;2.00;2.00;;;;;24.58;34.78;100477.83;109409;1270;20875;-36
2023/07/21 10:13:18;;;;;;;;;3.00;3.00;;;;;24.62;34.88;100477.86;109371;1254;23054;-36
2023/07/21 10:15:46;;;;;;;;;3.00;3.00;;;;;24.65;34.71;100475.39;109380;1270;18754;-36
2023/07/21 10:18:14;;;;;;;;;3.00;3.00;;;;;24.65;34.51;100473.70;109325;1270;22750;-35
2023/07/21 10:20:42;;;;;;;;;3.00;3.00;;;;;24.68;34.19;100475.83;109327;1254;19624;-36
2023/07/21 10:23:09;;;;;;;;;2.00;2.00;;;;;24.62;34.25;100473.48;109340;1263;19968;-36
2023/07/21 10:25:37;;;;;;;;;8.00;5.50;;;;;24.63;34.12;100470.77;109335;1270;20750;-37
2023/07/21 10:28:04;;;;;;;;;9.00;6.50;;;;;24.81;33.86;100471.84;109361;1270;22696;-36
2023/07/21 10:30:31;;;;;;;;;6.00;5.00;;;;;24.80;33.53;100468.02;109352;1255;20072;-37
2023/07/21 10:32:59;;;;;;;;;6.50;5.00;;;;;24.74;33.37;100471.66;109358;1270;19359;-35
2023/07/21 10:35:27;;;;;;;;;5.00;5.00;;;;;24.66;33.36;100471.88;109329;1254;22170;-36
2023/07/21 10:37:54;;;;;;;;;2.00;2.00;;;;;24.61;33.16;100468.14;109374;1255;20078;-36
2023/07/21 10:40:21;;;;;;;;;3.00;2.00;;;;;24.53;33.24;100463.69;109347;1254;20776;-36
2023/07/21 10:42:49;;;;;;;;;3.00;3.00;;;;;24.59;33.01;100464.73;109380;1270;18323;-35
2023/07/21 10:45:16;;;;;;;;;6.00;5.00;;;;;24.62;32.81;100454.30;109352;1255;20045;-35
2023/07/21 10:47:44;;;;;;;;;5.00;3.00;;;;;24.72;32.93;100455.01;109350;1264;22591;-35
2023/07/21 10:50:12;;;;;;;;;5.00;5.00;;;;;24.74;32.94;100451.12;109337;1270;19582;-35
2023/07/21 10:52:39;;;;;;;;;5.00;5.00;;;;;24.69;32.64;100448.69;109358;1270;18680;-36
2023/07/21 10:55:07;;;;;;;;;6.00;5.00;;;;;24.66;32.54;100443.44;109309;1255;21946;-36
2023/07/21 10:57:34;;;;;;;;;5.00;3.00;;;;;24.66;32.48;100447.71;109349;1270;18439;-36
2023/07/21 11:00:01;;;;;;;;;8.00;6.00;;;;;24.69;31.67;100445.40;109327;1254;22274;-35
2023/07/21 11:02:29;;;;;;;;;7.50;6.50;;;;;24.72;31.20;100446.95;109319;1270;22864;-36
2023/07/21 11:04:56;;;;;;;;;10.00;7.00;;;;;24.67;31.06;100445.17;109488;1269;19648;-35
2023/07/21 11:07:24;;;;;;;;;13.00;11.00;;;;;24.74;30.98;100441.20;109641;1254;20114;-35
2023/07/21 11:09:55;;;;;;;;;11.00;10.00;;;;;24.79;30.90;100447.90;109709;1268;19320;-35
2023/07/21 11:12:22;;;;;;;;;6.00;6.00;;;;;24.81;30.78;100438.00;109566;1268;18653;-35
2023/07/21 11:14:50;;;;;;;;;5.00;3.00;;;;;24.69;30.09;100433.25;109619;1253;18694;-34
2023/07/21 11:17:17;;;;;;;;;5.50;5.00;;;;;24.64;30.05;100431.45;109586;1254;20750;-35